CheckWX is a tool to help pilots better visualize weather data.  It is not intended as a substitute for an official pre-flight weather briefing.

07:54:16 UTC

LIRL TAF
Latina Airport
Latina, Italy
TAF LIRL 060600Z 0607/0615 08006KT 9999 SCT030 SCT050 TEMPO 0608/0612 RA

Dec-6@
07:00 UTC

Dec-6 @ 07:00 UTC

Dec-6@
15:00 UTC

Dec-6 @ 15:00 UTC

TAF LIRL 060600Z 0607/0615 08006KT 9999 SCT030 SCT050
Wind
  • 080° at 6 KTS
Cloud Levels
  • Scattered at 3,000' AGL
  • Scattered at 5,000' AGL

Dec-6@
08:00 UTC

Dec-6 @ 08:00 UTC

Dec-6@
12:00 UTC

Dec-6 @ 12:00 UTC

TEMPO 0608/0612 RA

Temporary

Temporary Changes expected for less than half the time period

Conditions
Rain